createdAt,value
2018-02-07T00:01:33.536Z,3.06
2018-02-07T00:04:03.963Z,3.11
2018-02-07T00:06:33.049Z,3.04
2018-02-07T00:09:03.694Z,3.03
2018-02-07T00:11:33.132Z,3.05
2018-02-07T00:14:04.637Z,3.05
2018-02-07T00:16:38.026Z,3.07
2018-02-07T00:19:06.905Z,3.02
2018-02-07T00:21:35.743Z,3.05
2018-02-07T00:24:06.918Z,3.03
2018-02-07T00:26:35.756Z,2.93
2018-02-07T00:29:05.195Z,2.87
2018-02-07T00:31:34.911Z,2.80
2018-02-07T00:34:05.389Z,2.84
2018-02-07T00:36:34.520Z,2.82
2018-02-07T00:39:05.107Z,2.82
2018-02-07T00:41:35.317Z,2.83
2018-02-07T00:44:06.912Z,2.83
2018-02-07T00:46:36.312Z,2.83
2018-02-07T00:49:05.476Z,2.84
2018-02-07T00:51:34.612Z,2.80
2018-02-07T00:54:05.020Z,2.82
2018-02-07T00:56:34.776Z,2.78
2018-02-07T00:59:05.152Z,2.78
2018-02-07T01:01:34.744Z,2.77
2018-02-07T01:04:05.356Z,2.80
2018-02-07T01:06:34.180Z,2.79
2018-02-07T01:09:04.200Z,2.75
2018-02-07T01:11:33.388Z,2.73
2018-02-07T01:14:04.268Z,2.64
2018-02-07T01:16:33.100Z,2.62
2018-02-07T01:19:02.845Z,2.66
2018-02-07T01:21:31.635Z,2.60
2018-02-07T01:24:02.365Z,2.62
2018-02-07T01:26:31.611Z,2.61
2018-02-07T01:29:00.618Z,2.60
2018-02-07T01:31:29.563Z,2.58
2018-02-07T01:34:00.747Z,2.56
2018-02-07T01:36:29.765Z,2.55
2018-02-07T01:38:58.868Z,2.50
2018-02-07T01:41:28.047Z,2.50
2018-02-07T01:43:57.652Z,2.46
2018-02-07T01:46:28.160Z,2.46
2018-02-07T01:49:00.808Z,2.46
2018-02-07T01:51:30.329Z,2.46
2018-02-07T01:53:59.476Z,2.46
2018-02-07T01:56:28.591Z,2.40
2018-02-07T01:58:58.280Z,2.40
2018-02-07T02:01:27.264Z,2.40
2018-02-07T02:03:58.738Z,2.39
2018-02-07T02:06:27.568Z,2.32
2018-02-07T02:08:58.090Z,2.32
2018-02-07T02:11:26.888Z,2.31
2018-02-07T02:13:57.857Z,2.28
2018-02-07T02:16:26.884Z,2.32
2018-02-07T02:18:57.683Z,2.28
2018-02-07T02:21:28.320Z,2.30
2018-02-07T02:23:59.868Z,2.35
2018-02-07T02:26:28.732Z,2.33
2018-02-07T02:28:58.888Z,2.31
2018-02-07T02:31:27.660Z,2.32
2018-02-07T02:33:57.493Z,2.19
2018-02-07T02:36:41.324Z,2.20
2018-02-07T02:39:10.097Z,2.23
2018-02-07T02:41:38.864Z,2.23
2018-02-07T02:44:08.796Z,2.21
2018-02-07T02:46:37.580Z,2.16
2018-02-07T02:49:06.383Z,2.20
2018-02-07T02:51:35.677Z,2.24
2018-02-07T02:54:06.116Z,2.21
2018-02-07T02:56:34.924Z,2.21
2018-02-07T02:59:04.422Z,2.21
2018-02-07T03:01:34.552Z,2.17
2018-02-07T03:04:04.606Z,2.16
2018-02-07T03:06:33.393Z,2.20
2018-02-07T03:09:03.681Z,2.16
2018-02-07T03:11:32.988Z,2.13
2018-02-07T03:14:03.204Z,2.14
2018-02-07T03:16:32.044Z,2.13
2018-02-07T03:19:01.193Z,2.08
2018-02-07T03:21:30.148Z,2.02
2018-02-07T03:23:58.923Z,2.01
2018-02-07T03:26:28.121Z,2.04
2018-02-07T03:28:58.120Z,1.98
2018-02-07T03:31:27.269Z,1.97
2018-02-07T03:33:59.421Z,1.95
2018-02-07T03:36:28.353Z,1.93
2018-02-07T03:38:58.614Z,1.94
2018-02-07T03:41:27.402Z,1.87
2018-02-07T03:43:57.464Z,1.93
2018-02-07T03:46:27.640Z,1.94
2018-02-07T03:48:57.302Z,1.92
2018-02-07T03:51:26.101Z,1.94
2018-02-07T03:53:55.966Z,1.94
2018-02-07T03:56:24.733Z,1.95
2018-02-07T03:58:54.075Z,1.99
2018-02-07T04:01:23.237Z,1.98
2018-02-07T04:03:52.036Z,1.93
2018-02-07T04:06:21.097Z,1.96
2018-02-07T04:08:50.111Z,1.94
2018-02-07T04:11:19.364Z,1.95
2018-02-07T04:13:48.454Z,1.97
2018-02-07T04:16:17.229Z,1.94
2018-02-07T04:18:46.021Z,1.92
2018-02-07T04:21:15.100Z,1.92
2018-02-07T04:23:43.914Z,1.93
2018-02-07T04:26:13.688Z,1.92
2018-02-07T04:28:42.572Z,1.91
2018-02-07T04:31:11.648Z,1.91
2018-02-07T04:33:41.880Z,1.87
2018-02-07T04:36:40.931Z,1.86
2018-02-07T04:39:09.712Z,1.86
2018-02-07T04:41:39.598Z,1.80
2018-02-07T04:44:08.984Z,1.88
2018-02-07T04:46:38.130Z,1.88
2018-02-07T04:49:07.073Z,1.88
2018-02-07T04:51:35.877Z,1.87
2018-02-07T04:54:05.713Z,1.92
2018-02-07T04:56:34.768Z,1.86
2018-02-07T04:59:04.633Z,1.86
2018-02-07T05:01:33.493Z,1.82
2018-02-07T05:04:04.481Z,1.82
2018-02-07T05:06:34.352Z,1.83
2018-02-07T05:09:04.343Z,1.84
2018-02-07T05:11:33.556Z,1.84
2018-02-07T05:14:04.016Z,1.86
2018-02-07T05:16:32.845Z,1.84
2018-02-07T05:19:03.206Z,1.84
2018-02-07T05:21:32.032Z,1.84
2018-02-07T05:24:01.642Z,1.86
2018-02-07T05:26:31.837Z,1.86
2018-02-07T05:29:00.765Z,1.85
2018-02-07T05:31:30.403Z,1.85
2018-02-07T05:34:00.417Z,1.83
2018-02-07T05:36:29.473Z,1.83
2018-02-07T05:39:00.014Z,1.86
2018-02-07T05:41:28.784Z,1.82
2018-02-07T05:43:58.076Z,1.78
2018-02-07T05:46:27.214Z,1.81
2018-02-07T05:48:57.261Z,1.82
2018-02-07T05:51:26.194Z,1.82
2018-02-07T05:53:55.753Z,1.73
2018-02-07T05:56:24.544Z,1.72
2018-02-07T05:58:53.290Z,1.71
2018-02-07T06:01:22.364Z,1.73
2018-02-07T06:03:51.649Z,1.73
2018-02-07T06:06:20.416Z,1.71
2018-02-07T06:08:49.528Z,1.74
2018-02-07T06:11:18.324Z,1.76
2018-02-07T06:13:47.208Z,1.76
2018-02-07T06:16:15.963Z,1.74
2018-02-07T06:18:44.765Z,1.75
2018-02-07T06:21:14.115Z,1.71
2018-02-07T06:23:43.194Z,1.72
2018-02-07T06:26:12.778Z,1.73
2018-02-07T06:28:41.883Z,1.71
2018-02-07T06:31:10.666Z,1.67
2018-02-07T06:33:39.438Z,1.64
2018-02-07T06:36:08.705Z,1.64
2018-02-07T06:38:37.456Z,1.67
2018-02-07T06:41:06.268Z,1.67
2018-02-07T06:43:35.344Z,1.60
2018-02-07T06:46:05.701Z,1.67
2018-02-07T06:48:34.542Z,1.63
2018-02-07T06:51:04.712Z,1.63
2018-02-07T06:53:33.602Z,1.63
2018-02-07T06:56:03.682Z,1.62
2018-02-07T06:58:32.459Z,1.66
2018-02-07T07:01:02.376Z,1.66
2018-02-07T07:03:31.768Z,1.64
2018-02-07T07:06:01.187Z,1.67
2018-02-07T07:08:30.038Z,1.60
2018-02-07T07:10:59.833Z,1.63
2018-02-07T07:13:28.676Z,1.63
2018-02-07T07:15:57.701Z,1.63
2018-02-07T07:18:26.804Z,1.65
2018-02-07T07:20:56.722Z,1.60
2018-02-07T07:23:25.580Z,1.62
2018-02-07T07:25:54.730Z,1.56
2018-02-07T07:28:23.504Z,1.63
2018-02-07T07:30:52.296Z,1.62
2018-02-07T07:35:48.932Z,1.69
2018-02-07T07:38:17.697Z,1.77
2018-02-07T07:40:46.764Z,1.89
2018-02-07T07:43:15.877Z,2.15
2018-02-07T07:45:44.681Z,2.40
2018-02-07T07:48:13.741Z,2.74
2018-02-07T07:50:42.810Z,2.99
2018-02-07T07:53:11.924Z,3.40
2018-02-07T07:55:40.704Z,3.98
2018-02-07T07:58:13.062Z,4.67
2018-02-07T08:00:42.565Z,5.08
2018-02-07T08:03:11.561Z,5.44
2018-02-07T08:05:40.336Z,6.09
2018-02-07T08:08:09.268Z,6.66
2018-02-07T08:10:39.382Z,6.91
2018-02-07T08:13:08.616Z,7.04
2018-02-07T08:15:37.388Z,7.38
2018-02-07T08:18:06.651Z,7.60
2018-02-07T08:21:06.734Z,7.60
2018-02-07T08:23:35.966Z,7.63
2018-02-07T08:26:06.826Z,7.98
2018-02-07T08:28:35.585Z,8.11
2018-02-07T08:31:05.172Z,8.11
2018-02-07T08:33:34.005Z,8.22
2018-02-07T08:36:04.674Z,8.31
2018-02-07T08:38:34.764Z,7.62
2018-02-07T08:41:04.994Z,7.97
2018-02-07T08:43:33.772Z,7.91
2018-02-07T08:46:04.374Z,7.65
2018-02-07T08:48:33.221Z,7.59
2018-02-07T08:51:03.931Z,6.55
2018-02-07T08:53:33.023Z,6.27
2018-02-07T08:56:03.180Z,5.72
2018-02-07T08:58:31.960Z,5.34
2018-02-07T09:01:02.094Z,4.92
2018-02-07T09:03:30.856Z,4.86
2018-02-07T09:06:00.060Z,4.78
2018-02-07T09:08:29.387Z,4.66
2018-02-07T09:10:59.336Z,4.61
2018-02-07T09:13:28.226Z,4.71
2018-02-07T09:15:58.132Z,4.54
2018-02-07T09:18:29.501Z,4.69
2018-02-07T09:20:59.557Z,4.53
2018-02-07T09:23:28.476Z,4.36
2018-02-07T09:25:58.695Z,4.33
2018-02-07T09:28:27.878Z,4.48
2018-02-07T09:30:58.610Z,4.52
2018-02-07T09:33:27.404Z,4.64
2018-02-07T09:35:56.659Z,4.82
2018-02-07T09:38:25.484Z,4.86
2018-02-07T09:40:55.130Z,4.98
2018-02-07T09:43:25.252Z,4.82
2018-02-07T09:45:54.061Z,4.95
2018-02-07T09:48:23.133Z,5.20
2018-02-07T09:50:51.908Z,5.23
2018-02-07T09:53:20.761Z,5.53
2018-02-07T09:55:51.088Z,5.70
2018-02-07T09:58:21.213Z,5.93
2018-02-07T10:00:50.288Z,6.05
2018-02-07T10:03:19.971Z,6.26
2018-02-07T10:05:48.794Z,6.60
2018-02-07T10:08:17.616Z,6.65
2018-02-07T10:10:47.902Z,6.88
2018-02-07T10:13:16.919Z,6.97
2018-02-07T10:15:46.438Z,6.93
2018-02-07T10:18:15.793Z,6.57
2018-02-07T10:20:44.565Z,6.58
2018-02-07T10:23:14.748Z,6.37
2018-02-07T10:25:43.844Z,6.57
2018-02-07T10:28:12.879Z,6.89
2018-02-07T10:33:26.104Z,6.81
2018-02-07T10:35:55.405Z,6.85
2018-02-07T10:38:25.354Z,6.67
2018-02-07T10:40:56.308Z,6.73
2018-02-07T10:43:25.360Z,6.83
2018-02-07T10:45:56.992Z,6.77
2018-02-07T10:48:26.608Z,6.80
2018-02-07T10:50:56.393Z,7.04
2018-02-07T10:53:26.635Z,7.08
2018-02-07T10:56:00.340Z,7.06
2018-02-07T10:58:46.833Z,7.01
2018-02-07T11:01:32.954Z,6.85
2018-02-07T11:04:03.475Z,7.02
2018-02-07T11:06:32.280Z,7.20
2018-02-07T11:09:01.466Z,7.32
2018-02-07T11:11:30.668Z,7.37
2018-02-07T11:13:59.447Z,7.05
2018-02-07T11:16:28.769Z,7.27
2018-02-07T11:18:58.045Z,7.42
2018-02-07T11:21:26.849Z,7.17
2018-02-07T11:23:56.188Z,7.05
2018-02-07T11:26:25.433Z,7.06
2018-02-07T11:28:54.228Z,7.01
2018-02-07T11:31:23.009Z,7.10
2018-02-07T11:33:52.087Z,7.03
2018-02-07T11:36:21.160Z,6.94
2018-02-07T11:38:50.280Z,6.99
2018-02-07T11:41:19.928Z,7.08
2018-02-07T11:43:48.764Z,7.05
2018-02-07T11:46:17.552Z,7.18
2018-02-07T11:48:46.929Z,6.84
2018-02-07T11:51:16.167Z,6.86
2018-02-07T11:53:45.764Z,6.88
2018-02-07T11:56:18.165Z,6.74
2018-02-07T11:58:48.525Z,6.75
2018-02-07T12:03:48.884Z,7.09
2018-02-07T12:06:18.683Z,6.83
2018-02-07T12:08:48.904Z,6.79
2018-02-07T12:11:17.969Z,6.73
2018-02-07T12:13:46.813Z,6.88
2018-02-07T12:16:17.506Z,7.17
2018-02-07T12:18:46.283Z,7.35
2018-02-07T12:21:15.988Z,7.52
2018-02-07T12:23:45.072Z,7.63
2018-02-07T12:26:14.637Z,7.75
2018-02-07T12:28:43.476Z,7.80
2018-02-07T12:31:14.110Z,7.73
2018-02-07T12:33:42.919Z,7.91
2018-02-07T12:36:15.108Z,8.00
2018-02-07T12:38:44.243Z,7.79
2018-02-07T12:41:13.797Z,7.83
2018-02-07T12:43:42.711Z,7.95
2018-02-07T12:46:12.017Z,8.27
2018-02-07T12:48:40.858Z,8.49
2018-02-07T12:51:09.683Z,8.93
2018-02-07T12:53:38.791Z,9.31
2018-02-07T12:56:07.759Z,9.53
2018-02-07T12:58:36.649Z,9.78
2018-02-07T13:01:06.025Z,9.96
2018-02-07T13:03:34.795Z,9.87
2018-02-07T13:06:05.159Z,10.09
2018-02-07T13:08:35.572Z,10.17
2018-02-07T13:11:05.229Z,10.08
2018-02-07T13:13:34.021Z,10.30
2018-02-07T13:16:06.123Z,10.35
2018-02-07T13:18:35.365Z,11.00
2018-02-07T13:21:05.520Z,11.04
2018-02-07T13:23:34.648Z,10.95
2018-02-07T13:26:06.669Z,10.92
2018-02-07T13:28:35.454Z,10.68
2018-02-07T13:31:05.288Z,10.18
2018-02-07T13:33:34.065Z,10.15
2018-02-07T13:36:05.480Z,10.20
2018-02-07T13:38:35.482Z,10.15
2018-02-07T13:41:04.920Z,10.48
2018-02-07T13:43:33.741Z,10.37
2018-02-07T13:46:03.684Z,10.34
2018-02-07T13:48:32.525Z,9.76
2018-02-07T13:51:01.638Z,9.57
2018-02-07T13:53:30.739Z,9.66
2018-02-07T13:55:59.536Z,9.43
2018-02-07T13:58:29.480Z,9.17
2018-02-07T14:00:58.528Z,9.33
2018-02-07T14:03:27.317Z,9.37
2018-02-07T14:05:56.124Z,9.17
2018-02-07T14:08:25.236Z,9.12
2018-02-07T14:10:54.064Z,8.69
2018-02-07T14:13:25.115Z,8.69
2018-02-07T14:15:54.184Z,8.64
2018-02-07T14:18:23.276Z,8.63
2018-02-07T14:20:52.058Z,8.44
2018-02-07T14:23:21.204Z,8.28
2018-02-07T14:25:49.998Z,8.45
2018-02-07T14:28:18.892Z,8.32
2018-02-07T14:30:48.112Z,8.27
2018-02-07T14:33:18.207Z,8.28
2018-02-07T14:35:46.987Z,8.25
2018-02-07T14:38:18.052Z,8.28
2018-02-07T14:40:46.846Z,7.97
2018-02-07T14:43:16.688Z,8.11
2018-02-07T14:45:45.725Z,8.01
2018-02-07T14:48:15.646Z,7.92
2018-02-07T14:50:44.478Z,7.89
2018-02-07T14:53:14.139Z,7.87
2018-02-07T14:55:43.048Z,7.62
2018-02-07T14:58:12.961Z,7.68
2018-02-07T15:00:42.068Z,7.65
2018-02-07T15:03:11.009Z,7.55
2018-02-07T15:05:40.868Z,7.56
2018-02-07T15:08:10.012Z,7.61
2018-02-07T15:10:39.614Z,7.50
2018-02-07T15:13:08.520Z,7.45
2018-02-07T15:15:37.640Z,7.43
2018-02-07T15:18:06.440Z,7.29
2018-02-07T15:20:35.312Z,7.25
2018-02-07T15:23:05.700Z,7.21
2018-02-07T15:25:34.540Z,7.13
2018-02-07T15:28:04.037Z,7.06
2018-02-07T15:30:34.413Z,7.07
2018-02-07T15:33:05.568Z,7.12
2018-02-07T15:35:35.115Z,7.16
2018-02-07T15:38:05.124Z,7.11
2018-02-07T15:40:33.997Z,7.08
2018-02-07T15:43:04.250Z,7.06
2018-02-07T15:45:33.368Z,7.06
2018-02-07T15:48:03.965Z,6.96
2018-02-07T15:50:32.832Z,7.00
2018-02-07T15:53:02.630Z,6.88
2018-02-07T15:55:31.531Z,6.83
2018-02-07T15:58:00.910Z,6.71
2018-02-07T16:00:31.265Z,6.84
2018-02-07T16:03:00.049Z,6.76
2018-02-07T16:05:28.876Z,6.54
2018-02-07T16:07:58.113Z,6.55
2018-02-07T16:10:26.932Z,6.42
2018-02-07T16:12:55.704Z,6.40
2018-02-07T16:15:26.740Z,6.43
2018-02-07T16:17:56.353Z,6.41
2018-02-07T16:20:25.130Z,6.32
2018-02-07T16:22:54.307Z,6.29
2018-02-07T16:25:24.575Z,6.25
2018-02-07T16:27:53.409Z,6.26
2018-02-07T16:30:23.358Z,6.21
2018-02-07T16:32:52.137Z,6.22
2018-02-07T16:35:21.105Z,6.15
2018-02-07T16:37:50.177Z,6.09
2018-02-07T16:40:20.284Z,6.03
2018-02-07T16:42:49.536Z,6.01
2018-02-07T16:45:18.817Z,6.04
2018-02-07T16:47:47.604Z,5.94
2018-02-07T16:50:17.253Z,5.94
2018-02-07T16:52:46.468Z,5.97
2018-02-07T16:55:16.425Z,5.94
2018-02-07T16:57:45.226Z,5.96
2018-02-07T17:00:15.351Z,5.90
2018-02-07T17:02:44.372Z,5.75
2018-02-07T17:05:13.816Z,5.75
2018-02-07T17:07:46.107Z,5.80
2018-02-07T17:10:18.766Z,5.83
2018-02-07T17:12:47.693Z,5.80
2018-02-07T17:15:17.724Z,5.75
2018-02-07T17:17:46.548Z,5.81
2018-02-07T17:20:15.703Z,5.77
2018-02-07T17:22:44.744Z,5.67
2018-02-07T17:25:14.078Z,5.70
2018-02-07T17:27:43.565Z,5.65
2018-02-07T17:30:12.690Z,5.67
2018-02-07T17:32:41.482Z,5.62
2018-02-07T17:35:10.513Z,5.59
2018-02-07T17:37:40.603Z,5.56
2018-02-07T17:40:09.541Z,5.51
2018-02-07T17:42:38.392Z,5.47
2018-02-07T17:45:07.504Z,5.47
2018-02-07T17:47:36.307Z,5.47
2018-02-07T17:50:07.329Z,5.49
2018-02-07T17:52:37.441Z,5.44
2018-02-07T17:55:06.598Z,5.41
2018-02-07T17:57:35.693Z,5.39
2018-02-07T18:00:06.390Z,5.41
2018-02-07T18:02:35.264Z,5.44
2018-02-07T18:05:05.284Z,5.45
2018-02-07T18:07:35.396Z,5.43
2018-02-07T18:10:06.312Z,5.42
2018-02-07T18:12:35.836Z,5.44
2018-02-07T18:15:08.208Z,5.39
2018-02-07T18:17:37.009Z,5.36
2018-02-07T18:20:06.336Z,5.36
2018-02-07T18:22:35.449Z,5.30
2018-02-07T18:25:04.480Z,5.31
2018-02-07T18:27:33.315Z,5.24
2018-02-07T18:30:04.326Z,5.15
2018-02-07T18:32:33.242Z,5.19
2018-02-07T18:35:04.356Z,5.14
2018-02-07T18:37:34.849Z,5.10
2018-02-07T18:40:05.461Z,5.12
2018-02-07T18:42:34.273Z,5.13
2018-02-07T18:45:04.810Z,5.13
2018-02-07T18:47:33.620Z,5.16
2018-02-07T18:50:04.080Z,5.15
2018-02-07T18:52:34.288Z,5.14
2018-02-07T18:55:05.898Z,5.07
2018-02-07T18:57:35.922Z,5.04
2018-02-07T19:00:06.908Z,5.06
2018-02-07T19:02:35.734Z,5.05
2018-02-07T19:05:04.939Z,5.04
2018-02-07T19:07:34.908Z,5.02
2018-02-07T19:10:05.065Z,5.03
2018-02-07T19:12:34.203Z,5.01
2018-02-07T19:15:07.440Z,4.97
2018-02-07T19:17:37.072Z,5.00
2018-02-07T19:20:06.875Z,5.01
2018-02-07T19:22:36.072Z,4.98
2018-02-07T19:25:04.870Z,5.05
2018-02-07T19:27:34.504Z,5.00
2018-02-07T19:30:04.774Z,5.02
2018-02-07T19:35:10.315Z,5.04
2018-02-07T19:37:39.573Z,5.03
2018-02-07T19:40:08.398Z,5.01
2018-02-07T19:42:37.474Z,5.00
2018-02-07T19:45:07.199Z,4.93
2018-02-07T19:47:37.085Z,4.88
2018-02-07T19:50:07.469Z,4.85
2018-02-07T19:52:36.652Z,4.83
2018-02-07T19:55:05.870Z,4.83
2018-02-07T19:57:34.946Z,4.84
2018-02-07T20:00:05.663Z,4.80
2018-02-07T20:02:34.464Z,4.77
2018-02-07T20:05:20.150Z,4.75
2018-02-07T20:07:57.559Z,4.74
2018-02-07T20:10:33.232Z,4.74
2018-02-07T20:13:07.911Z,4.74
2018-02-07T20:15:38.440Z,4.72
2018-02-07T20:18:08.908Z,4.71
2018-02-07T20:20:37.900Z,4.66
2018-02-07T20:23:07.347Z,4.64
2018-02-07T20:25:36.366Z,4.67
2018-02-07T20:28:06.132Z,4.55
2018-02-07T20:30:35.251Z,4.54
2018-02-07T20:33:05.793Z,4.55
2018-02-07T20:35:34.656Z,4.39
2018-02-07T20:38:05.073Z,4.36
2018-02-07T20:40:33.879Z,4.31
2018-02-07T20:43:03.282Z,4.28
2018-02-07T20:45:32.814Z,4.23
2018-02-07T20:48:03.167Z,4.26
2018-02-07T20:50:32.048Z,4.30
2018-02-07T20:53:01.743Z,4.23
2018-02-07T20:55:30.648Z,4.24
2018-02-07T20:57:59.464Z,4.23
2018-02-07T21:00:29.208Z,4.16
2018-02-07T21:03:04.740Z,4.12
2018-02-07T21:05:41.188Z,4.13
2018-02-07T21:08:10.101Z,4.10
2018-02-07T21:10:39.173Z,4.09
2018-02-07T21:13:09.579Z,4.09
2018-02-07T21:15:39.196Z,3.98
2018-02-07T21:18:08.312Z,3.99
2018-02-07T21:20:37.125Z,3.99
2018-02-07T21:23:05.954Z,3.95
2018-02-07T21:25:35.864Z,3.99
2018-02-07T21:28:06.851Z,3.96
2018-02-07T21:30:35.620Z,4.00
2018-02-07T21:33:06.200Z,3.96
2018-02-07T21:35:34.977Z,3.94
2018-02-07T21:38:05.093Z,3.97
2018-02-07T21:40:34.300Z,3.93
2018-02-07T21:43:04.604Z,3.94
2018-02-07T21:45:33.560Z,3.92
2018-02-07T21:48:04.243Z,3.84
2018-02-07T21:50:34.333Z,3.89
2018-02-07T21:53:03.755Z,3.85
2018-02-07T21:55:32.820Z,3.74
2018-02-07T21:58:06.200Z,3.76
2018-02-07T22:00:35.390Z,3.80
2018-02-07T22:03:05.110Z,3.85
2018-02-07T22:05:33.880Z,3.86
2018-02-07T22:08:07.464Z,3.83
2018-02-07T22:10:38.126Z,3.83
2018-02-07T22:13:07.421Z,3.86
2018-02-07T22:15:36.284Z,3.91
2018-02-07T22:18:06.505Z,3.96
2018-02-07T22:20:35.509Z,3.90
2018-02-07T22:23:06.178Z,3.89
2018-02-07T22:25:35.496Z,3.92
2018-02-07T22:28:06.100Z,3.95
2018-02-07T22:30:34.872Z,3.89
2018-02-07T22:33:04.793Z,3.86
2018-02-07T22:35:33.916Z,3.88
2018-02-07T22:38:04.028Z,3.87
2018-02-07T22:40:33.259Z,3.91
2018-02-07T22:43:02.232Z,3.92
2018-02-07T22:45:31.124Z,3.95
2018-02-07T22:48:00.232Z,3.99
2018-02-07T22:50:29.983Z,3.96
2018-02-07T22:53:00.991Z,4.00
2018-02-07T22:55:31.617Z,3.85
2018-02-07T22:58:02.980Z,3.89
2018-02-07T23:00:33.579Z,3.92
2018-02-07T23:03:05.830Z,3.94
2018-02-07T23:05:36.050Z,3.87
2018-02-07T23:08:06.315Z,3.83
2018-02-07T23:10:35.318Z,3.87
2018-02-07T23:13:04.985Z,3.81
2018-02-07T23:15:34.359Z,3.84
2018-02-07T23:18:04.429Z,3.86
2018-02-07T23:20:33.795Z,3.87
2018-02-07T23:23:03.851Z,3.90
2018-02-07T23:25:33.070Z,3.87
2018-02-07T23:28:04.198Z,3.81
2018-02-07T23:30:33.746Z,3.74
2018-02-07T23:33:03.810Z,3.84
2018-02-07T23:35:33.373Z,3.82
2018-02-07T23:38:05.562Z,3.78
2018-02-07T23:40:35.337Z,3.77
2018-02-07T23:43:05.153Z,3.84
2018-02-07T23:45:34.082Z,3.76
2018-02-07T23:48:03.595Z,3.72
2018-02-07T23:50:33.853Z,3.73
2018-02-07T23:53:04.091Z,3.71
2018-02-07T23:55:35.549Z,3.69
2018-02-07T23:58:12.484Z,3.71
